Shin Mei Maru — JG5617 — position and weather

sailwx.info

Track history (hours):
 
Tides and Currents Weather Stations Pressure Air Temp Water Temp Dewpoint Dewpoint Depression Visibility Wind Speed Wind Dir Waves Ship Positions

Shin Mei Maru

Last reported at 2015-Sep-02 21:07 UTC. Time now 2015-Sep-03 17:17 UTC.
Position N 36°47' E 141°07'.

Length 160 m; draft 6.8 m.

Type: Cargo ship. MMSI: 431100922.

Date/timePositionNaut miles runAvg speedWind from/ knotsBaromVisibWave heightAir tempDewpointWater temp
2015-Sep-02 21:07N 36°47' E 141°07'1417.4
2015-Sep-02 20:19N 36°33' E 141°05'1317.5
2015-Sep-02 19:33N 36°20' E 141°03'1717.3
2015-Sep-02 18:33N 36°02' E 141°01'1717.4
2015-Sep-02 17:33N 35°45' E 141°00'2017.7
2015-Sep-02 16:24N 35°27' E 140°50'1819.6
2015-Sep-02 15:28N 35°12' E 140°37'2020.9
2015-Sep-02 14:31N 34°59' E 140°18'1818.9
2015-Sep-02 13:33N 34°51' E 139°58'1515.0
2015-Sep-02 12:33N 34°59' E 139°42'1615.9
2015-Sep-02 11:33N 35°15' E 139°46'1312.7
2015-Sep-02 10:33N 35°28' E 139°48'1110.5
2015-Sep-02 09:33N 35°38' E 139°46'0 0.0
2015-Sep-02 08:26N 35°38' E 139°46'0 0.0
2015-Sep-02 07:32N 35°38' E 139°46'0 0.0
2015-Sep-02 06:29N 35°38' E 139°46'0 0.0
2015-Sep-02 05:32N 35°38' E 139°46'5 5.0
2015-Sep-02 04:33N 35°34' E 139°49'1414.0
2015-Sep-02 03:33N 35°21' E 139°45'1414.0
2015-Sep-02 02:33N 35°07' E 139°46'2018.8
2015-Sep-02 01:31N 34°54' E 139°27'22817.2
2015-Sep-01 12:14N 33°57' E 134°59'1318.7
2015-Sep-01 11:33N 34°10' E 134°59'1717.0
2015-Sep-01 10:33N 34°26' E 135°06'1817.8
2015-Sep-01 09:33N 34°36' E 135°23'2 1.5
2015-Sep-01 08:30N 34°37' E 135°25'0 0.0
2015-Sep-01 07:30N 34°37' E 135°25'0 0.0
2015-Sep-01 06:30N 34°37' E 135°25'0 0.0
2015-Sep-01 05:12N 34°37' E 135°25'0 0.0
2015-Sep-01 03:30N 34°37' E 135°25'0 0.0
2015-Sep-01 02:24N 34°37' E 135°25'0 0.0
2015-Sep-01 01:30N 34°37' E 135°25'6 6.8
2015-Sep-01 00:33N 34°34' E 135°18'1818.0
2015-Aug-31 23:33N 34°21' E 135°03'1918.7
2015-Aug-31 22:33N 34°02' E 134°59'23916.5
2015-Aug-31 08:04N 35°05' E 139°40'1018.5
2015-Aug-31 07:33N 35°13' E 139°46'1313.2
2015-Aug-31 06:33N 35°26' E 139°45'1212.1
2015-Aug-31 05:34N 35°38' E 139°46'0 0.3
2015-Aug-31 04:33N 35°38' E 139°46'0 0.0
2015-Aug-31 03:33N 35°38' E 139°46'0 0.0
2015-Aug-31 02:33N 35°38' E 139°46'0 0.0
2015-Aug-31 01:33N 35°38' E 139°46'0 0.0
2015-Aug-31 00:33N 35°38' E 139°46'0 0.0
2015-Aug-30 23:33N 35°38' E 139°46'0 0.0
2015-Aug-30 22:33N 35°38' E 139°46'2 1.6
2015-Aug-30 21:33N 35°37' E 139°46'1313.1
2015-Aug-30 20:33N 35°23' E 139°46'1111.4
2015-Aug-30 19:33N 35°12' E 139°47'1717.2
2015-Aug-30 18:33N 34°55' E 139°46'1515.3
2015-Aug-30 17:33N 34°55' E 140°04'2019.3
2015-Aug-30 16:32N 35°04' E 140°25'1918.8
2015-Aug-30 15:31N 35°19' E 140°40'1919.0
2015-Aug-30 14:31N 35°35' E 140°53'2319.9
2015-Aug-30 13:21N 35°57' E 141°01'  
2015-Aug-26 21:05N 36°04' E 141°02'1016.2
2015-Aug-26 20:30N 35°54' E 141°01'1516.1
2015-Aug-26 19:32N 35°39' E 140°59'1616.5
2015-Aug-26 18:33N 35°25' E 140°48'1716.8
2015-Aug-26 17:33N 35°13' E 140°35'1817.5
2015-Aug-26 16:33N 35°00' E 140°19'1716.6
2015-Aug-26 15:32N 34°53' E 140°01'1414.3
2015-Aug-26 14:33N 34°55' E 139°44'1616.5
2015-Aug-26 13:33N 35°11' E 139°46'1413.5
2015-Aug-26 12:33N 35°25' E 139°44'1312.5
2015-Aug-26 11:33N 35°37' E 139°46'0 0.4
2015-Aug-26 10:31N 35°38' E 139°46'0 0.0
2015-Aug-26 09:31N 35°38' E 139°46'4 4.2
2015-Aug-26 08:33N 35°34' E 139°48'1313.4
2015-Aug-26 07:33N 35°21' E 139°45'1312.9
2015-Aug-26 06:33N 35°08' E 139°46'1918.8
2015-Aug-26 05:31N 34°55' E 139°29'23015.3
2015-Aug-25 14:29N 33°52' E 135°00'1516.3
2015-Aug-25 13:33N 34°07' E 134°58'1817.6
2015-Aug-25 12:33N 34°24' E 135°01'1818.4
2015-Aug-25 11:33N 34°35' E 135°19'5 3.3
2015-Aug-25 10:06N 34°37' E 135°25'0 0.0
2015-Aug-25 08:30N 34°37' E 135°25'0 0.0
2015-Aug-25 02:30N 34°37' E 135°25'0 0.0
2015-Aug-25 01:32N 34°37' E 135°25'1111.1
2015-Aug-25 00:33N 34°32' E 135°13'1717.3
2015-Aug-24 23:33N 34°19' E 134°60'1817.7
2015-Aug-24 22:33N 34°01' E 134°59'23015.9
2015-Aug-24 08:05N 34°58' E 139°29'1120.1
2015-Aug-24 07:33N 35°04' E 139°39'1414.5
2015-Aug-24 06:33N 35°18' E 139°44'1515.1
2015-Aug-24 05:34N 35°32' E 139°51'7 7.0
2015-Aug-24 04:34N 35°38' E 139°46'0 0.0
2015-Aug-24 03:33N 35°38' E 139°46'0 0.0
2015-Aug-24 02:33N 35°38' E 139°46'0 0.0
2015-Aug-24 01:33N 35°38' E 139°46'0 0.0
2015-Aug-24 00:33N 35°38' E 139°46'0 0.0
2015-Aug-23 23:30N 35°38' E 139°46'0 0.0
2015-Aug-23 22:33N 35°38' E 139°46'9 9.4
2015-Aug-23 21:33N 35°30' E 139°53'  
Track history (hours):
 
Tides and Currents Weather Stations Pressure Air Temp Water Temp Dewpoint Dewpoint Depression Visibility Wind Speed Wind Dir Waves Ship Positions

Shin Mei Maru

Last reported at 2015-Sep-02 21:07 UTC. Time now 2015-Sep-03 17:17 UTC.
Position N 36°47' E 141°07'.

Length 160 m; draft 6.8 m.

Type: Cargo ship. MMSI: 431100922.

Date/timePositionNaut miles runAvg speedWind from/ knotsBaromVisibWave heightAir tempDewpointWater temp
2015-Sep-02 21:07N 36°47' E 141°07'1417.4
2015-Sep-02 20:19N 36°33' E 141°05'1317.5
2015-Sep-02 19:33N 36°20' E 141°03'1717.3
2015-Sep-02 18:33N 36°02' E 141°01'1717.4
2015-Sep-02 17:33N 35°45' E 141°00'2017.7
2015-Sep-02 16:24N 35°27' E 140°50'1819.6
2015-Sep-02 15:28N 35°12' E 140°37'2020.9
2015-Sep-02 14:31N 34°59' E 140°18'1818.9
2015-Sep-02 13:33N 34°51' E 139°58'1515.0
2015-Sep-02 12:33N 34°59' E 139°42'1615.9
2015-Sep-02 11:33N 35°15' E 139°46'1312.7
2015-Sep-02 10:33N 35°28' E 139°48'1110.5
2015-Sep-02 09:33N 35°38' E 139°46'0 0.0
2015-Sep-02 08:26N 35°38' E 139°46'0 0.0
2015-Sep-02 07:32N 35°38' E 139°46'0 0.0
2015-Sep-02 06:29N 35°38' E 139°46'0 0.0
2015-Sep-02 05:32N 35°38' E 139°46'5 5.0
2015-Sep-02 04:33N 35°34' E 139°49'1414.0
2015-Sep-02 03:33N 35°21' E 139°45'1414.0
2015-Sep-02 02:33N 35°07' E 139°46'2018.8
2015-Sep-02 01:31N 34°54' E 139°27'22817.2
2015-Sep-01 12:14N 33°57' E 134°59'1318.7
2015-Sep-01 11:33N 34°10' E 134°59'1717.0
2015-Sep-01 10:33N 34°26' E 135°06'1817.8
2015-Sep-01 09:33N 34°36' E 135°23'2 1.5
2015-Sep-01 08:30N 34°37' E 135°25'0 0.0
2015-Sep-01 07:30N 34°37' E 135°25'0 0.0
2015-Sep-01 06:30N 34°37' E 135°25'0 0.0
2015-Sep-01 05:12N 34°37' E 135°25'0 0.0
2015-Sep-01 03:30N 34°37' E 135°25'0 0.0
2015-Sep-01 02:24N 34°37' E 135°25'0 0.0
2015-Sep-01 01:30N 34°37' E 135°25'6 6.8
2015-Sep-01 00:33N 34°34' E 135°18'1818.0
2015-Aug-31 23:33N 34°21' E 135°03'1918.7
2015-Aug-31 22:33N 34°02' E 134°59'23916.5
2015-Aug-31 08:04N 35°05' E 139°40'1018.5
2015-Aug-31 07:33N 35°13' E 139°46'1313.2
2015-Aug-31 06:33N 35°26' E 139°45'1212.1
2015-Aug-31 05:34N 35°38' E 139°46'0 0.3
2015-Aug-31 04:33N 35°38' E 139°46'0 0.0
2015-Aug-31 03:33N 35°38' E 139°46'0 0.0
2015-Aug-31 02:33N 35°38' E 139°46'0 0.0
2015-Aug-31 01:33N 35°38' E 139°46'0 0.0
2015-Aug-31 00:33N 35°38' E 139°46'0 0.0
2015-Aug-30 23:33N 35°38' E 139°46'0 0.0
2015-Aug-30 22:33N 35°38' E 139°46'2 1.6
2015-Aug-30 21:33N 35°37' E 139°46'1313.1
2015-Aug-30 20:33N 35°23' E 139°46'1111.4
2015-Aug-30 19:33N 35°12' E 139°47'1717.2
2015-Aug-30 18:33N 34°55' E 139°46'1515.3
2015-Aug-30 17:33N 34°55' E 140°04'2019.3
2015-Aug-30 16:32N 35°04' E 140°25'1918.8
2015-Aug-30 15:31N 35°19' E 140°40'1919.0
2015-Aug-30 14:31N 35°35' E 140°53'2319.9
2015-Aug-30 13:21N 35°57' E 141°01'  
2015-Aug-26 21:05N 36°04' E 141°02'1016.2
2015-Aug-26 20:30N 35°54' E 141°01'1516.1
2015-Aug-26 19:32N 35°39' E 140°59'1616.5
2015-Aug-26 18:33N 35°25' E 140°48'1716.8
2015-Aug-26 17:33N 35°13' E 140°35'1817.5
2015-Aug-26 16:33N 35°00' E 140°19'1716.6
2015-Aug-26 15:32N 34°53' E 140°01'1414.3
2015-Aug-26 14:33N 34°55' E 139°44'1616.5
2015-Aug-26 13:33N 35°11' E 139°46'1413.5
2015-Aug-26 12:33N 35°25' E 139°44'1312.5
2015-Aug-26 11:33N 35°37' E 139°46'0 0.4
2015-Aug-26 10:31N 35°38' E 139°46'0 0.0
2015-Aug-26 09:31N 35°38' E 139°46'4 4.2
2015-Aug-26 08:33N 35°34' E 139°48'1313.4
2015-Aug-26 07:33N 35°21' E 139°45'1312.9
2015-Aug-26 06:33N 35°08' E 139°46'1918.8
2015-Aug-26 05:31N 34°55' E 139°29'23015.3
2015-Aug-25 14:29N 33°52' E 135°00'1516.3
2015-Aug-25 13:33N 34°07' E 134°58'1817.6
2015-Aug-25 12:33N 34°24' E 135°01'1818.4
2015-Aug-25 11:33N 34°35' E 135°19'5 3.3
2015-Aug-25 10:06N 34°37' E 135°25'0 0.0
2015-Aug-25 08:30N 34°37' E 135°25'0 0.0
2015-Aug-25 02:30N 34°37' E 135°25'0 0.0
2015-Aug-25 01:32N 34°37' E 135°25'1111.1
2015-Aug-25 00:33N 34°32' E 135°13'1717.3
2015-Aug-24 23:33N 34°19' E 134°60'1817.7
2015-Aug-24 22:33N 34°01' E 134°59'23015.9
2015-Aug-24 08:05N 34°58' E 139°29'1120.1
2015-Aug-24 07:33N 35°04' E 139°39'1414.5
2015-Aug-24 06:33N 35°18' E 139°44'1515.1
2015-Aug-24 05:34N 35°32' E 139°51'7 7.0
2015-Aug-24 04:34N 35°38' E 139°46'0 0.0
2015-Aug-24 03:33N 35°38' E 139°46'0 0.0
2015-Aug-24 02:33N 35°38' E 139°46'0 0.0
2015-Aug-24 01:33N 35°38' E 139°46'0 0.0
2015-Aug-24 00:33N 35°38' E 139°46'0 0.0
2015-Aug-23 23:30N 35°38' E 139°46'0 0.0
2015-Aug-23 22:33N 35°38' E 139°46'9 9.4
2015-Aug-23 21:33N 35°30' E 139°53'  

Dump ship's entire track history